Time;durP1;ratioP1;P1;durP2;ratioP2;P2;SDS_P1;SDS_P2;PMS_P1;PMS_P2;Temp;Humidity;BMP_temperature;BMP_pressure;BME280_temperature;BME280_humidity;BME280_pressure;Samples;Min_cycle;Max_cycle;Signal;HPM_P1;HPM_P2
2021/11/15 00:01:46;;;;;;;33.73;20.17;;;5.90;97.50;;;;;;5041313;28;20226;-91
2021/11/15 00:04:15;;;;;;;35.50;20.23;;;5.80;97.70;;;;;;5046532;28;20226;-94
2021/11/15 00:06:42;;;;;;;31.60;20.13;;;5.80;97.80;;;;;;5061696;28;20484;-91
2021/11/15 00:09:09;;;;;;;32.77;19.93;;;5.80;97.70;;;;;;5045127;28;20230;-91
2021/11/15 00:11:37;;;;;;;30.07;18.93;;;5.70;98.20;;;;;;5057503;28;20197;-90
2021/11/15 00:14:04;;;;;;;30.23;18.73;;;5.70;98.30;;;;;;5050764;28;20229;-91
2021/11/15 00:16:31;;;;;;;30.67;18.97;;;5.60;98.30;;;;;;5046690;28;20203;-91
2021/11/15 00:19:00;;;;;;;30.47;19.33;;;5.60;98.30;;;;;;5053819;28;20301;-91
2021/11/15 00:21:27;;;;;;;32.60;19.40;;;5.70;98.40;;;;;;5037375;28;20222;-90
2021/11/15 00:23:54;;;;;;;28.63;19.07;;;5.80;98.10;;;;;;5042022;28;20625;-91
2021/11/15 00:26:22;;;;;;;29.17;18.53;;;5.70;97.80;;;;;;5046607;28;20199;-92
2021/11/15 00:28:54;;;;;;;30.43;17.93;;;5.70;97.80;;;;;;5047294;28;20720;-91
2021/11/15 00:31:22;;;;;;;29.80;18.17;;;5.60;98.10;;;;;;5047625;28;20245;-90
2021/11/15 00:33:49;;;;;;;29.63;18.90;;;5.70;98.30;;;;;;5042954;28;20240;-90
2021/11/15 00:36:20;;;;;;;30.87;19.40;;;5.60;97.80;;;;;;5027228;28;20650;-91
2021/11/15 00:38:47;;;;;;;28.80;18.97;;;5.70;98.00;;;;;;5044373;28;20222;-90
2021/11/15 00:41:14;;;;;;;29.70;19.53;;;5.70;97.80;;;;;;5049335;28;20190;-91
2021/11/15 00:43:42;;;;;;;28.17;18.53;;;5.60;98.10;;;;;;5050334;28;20222;-92
2021/11/15 00:46:09;;;;;;;27.67;17.23;;;5.60;98.10;;;;;;5035156;28;20195;-92
2021/11/15 00:48:38;;;;;;;28.27;18.10;;;5.70;98.10;;;;;;5047665;28;20415;-91
2021/11/15 00:51:06;;;;;;;29.77;17.60;;;5.60;98.00;;;;;;5040511;28;20253;-90
2021/11/15 00:53:34;;;;;;;26.90;17.83;;;5.60;98.00;;;;;;5047235;28;20691;-91
2021/11/15 00:56:02;;;;;;;29.87;18.17;;;5.70;98.10;;;;;;5047498;28;20204;-91
2021/11/15 00:58:29;;;;;;;27.03;18.00;;;5.60;98.00;;;;;;5044944;28;20237;-91
2021/11/15 01:00:57;;;;;;;27.03;17.20;;;5.60;98.20;;;;;;5040491;28;20210;-91
2021/11/15 01:03:24;;;;;;;27.53;17.43;;;5.60;98.30;;;;;;5045964;28;20229;-92
2021/11/15 01:05:52;;;;;;;30.53;18.77;;;5.50;98.60;;;;;;5053837;28;20204;-90
2021/11/15 01:08:20;;;;;;;30.97;17.40;;;5.50;98.80;;;;;;5047764;28;20743;-91
2021/11/15 01:10:50;;;;;;;31.03;18.63;;;5.50;99.10;;;;;;5041769;28;20298;-92
2021/11/15 01:13:16;;;;;;;27.40;17.37;;;5.40;99.10;;;;;;5045447;28;20276;-90
2021/11/15 01:15:44;;;;;;;27.77;16.87;;;5.40;99.30;;;;;;5047431;28;20239;-90
2021/11/15 01:18:11;;;;;;;29.40;17.53;;;5.40;99.10;;;;;;5044025;28;20236;-91
2021/11/15 01:20:38;;;;;;;29.87;19.03;;;5.40;99.40;;;;;;5047744;28;20197;-91
2021/11/15 01:23:06;;;;;;;28.30;17.63;;;5.50;99.40;;;;;;5042882;28;20234;-90
2021/11/15 01:25:34;;;;;;;28.27;17.73;;;5.50;99.50;;;;;;5050550;28;20310;-91
2021/11/15 01:28:03;;;;;;;27.63;17.60;;;5.50;99.30;;;;;;5046506;28;20224;-91
2021/11/15 01:30:30;;;;;;;31.27;18.43;;;5.50;99.40;;;;;;5044802;28;20210;-90
2021/11/15 01:32:57;;;;;;;27.17;17.30;;;5.60;99.20;;;;;;5052686;28;20706;-90
2021/11/15 01:35:26;;;;;;;27.20;17.03;;;5.50;99.30;;;;;;5050017;28;20217;-91
2021/11/15 01:37:53;;;;;;;28.40;18.43;;;5.50;99.40;;;;;;5044857;28;20222;-90
2021/11/15 01:40:23;;;;;;;28.17;16.70;;;5.40;99.50;;;;;;5049378;28;20233;-91
2021/11/15 01:42:51;;;;;;;28.50;16.60;;;5.40;99.70;;;;;;5049829;28;20222;-90
2021/11/15 01:45:24;;;;;;;27.33;16.57;;;5.40;99.60;;;;;;5052989;28;20205;-90
2021/11/15 01:47:51;;;;;;;26.23;16.50;;;5.50;99.30;;;;;;5055307;28;20224;-89
2021/11/15 01:50:18;;;;;;;24.93;15.60;;;5.40;99.10;;;;;;5051175;28;20231;-90
2021/11/15 01:52:47;;;;;;;25.03;15.73;;;5.50;99.20;;;;;;5051981;28;20225;-91
2021/11/15 01:55:16;;;;;;;26.80;15.17;;;5.50;99.00;;;;;;5052338;28;20709;-91
2021/11/15 01:57:53;;;;;;;22.83;14.93;;;5.50;99.10;;;;;;5056252;28;20579;-90
2021/11/15 02:00:25;;;;;;;26.50;15.87;;;5.50;99.00;;;;;;5045426;28;20221;-91
2021/11/15 02:02:52;;;;;;;24.43;15.20;;;5.50;98.70;;;;;;5051173;28;20224;-90
2021/11/15 02:05:19;;;;;;;26.33;16.57;;;5.40;98.90;;;;;;5056281;28;20288;-91
2021/11/15 02:07:47;;;;;;;23.40;14.90;;;5.40;99.00;;;;;;5053169;28;20700;-90
2021/11/15 02:10:14;;;;;;;25.43;15.30;;;5.40;98.90;;;;;;5054429;28;20205;-90
2021/11/15 02:12:42;;;;;;;22.07;14.60;;;5.40;99.00;;;;;;5053457;28;20672;-91
2021/11/15 02:15:11;;;;;;;23.37;14.70;;;5.40;99.00;;;;;;5056684;28;20204;-91
2021/11/15 02:17:41;;;;;;;21.17;14.03;;;5.40;99.00;;;;;;5057929;28;20633;-91
2021/11/15 02:20:14;;;;;;;21.70;14.23;;;5.40;98.90;;;;;;5051406;28;20206;-91
2021/11/15 02:22:41;;;;;;;20.67;13.90;;;5.40;98.80;;;;;;5053199;28;20695;-90
2021/11/15 02:25:08;;;;;;;22.13;14.47;;;5.30;99.00;;;;;;5048181;28;20200;-90
2021/11/15 02:27:36;;;;;;;23.43;14.97;;;5.30;99.10;;;;;;5048195;28;20586;-90
2021/11/15 02:30:05;;;;;;;19.77;13.83;;;5.40;99.10;;;;;;5045803;28;20806;-90
2021/11/15 02:32:32;;;;;;;22.53;13.73;;;5.40;99.10;;;;;;5056416;28;20235;-91
2021/11/15 02:34:59;;;;;;;21.40;13.20;;;5.30;99.20;;;;;;5053820;28;20730;-90
2021/11/15 02:37:27;;;;;;;23.70;13.47;;;5.30;99.10;;;;;;5054772;28;20248;-89
2021/11/15 02:39:55;;;;;;;22.17;13.73;;;5.40;99.00;;;;;;5054296;28;20212;-91
2021/11/15 02:42:23;;;;;;;23.83;14.17;;;5.30;99.00;;;;;;5054802;28;20241;-91
2021/11/15 02:44:50;;;;;;;21.67;13.87;;;5.40;99.10;;;;;;5054272;28;20204;-91
2021/11/15 02:47:19;;;;;;;22.47;14.70;;;5.40;99.30;;;;;;5047126;28;20228;-91
2021/11/15 02:49:46;;;;;;;22.53;14.33;;;5.40;99.20;;;;;;5062525;28;20303;-90
2021/11/15 02:52:14;;;;;;;23.27;13.97;;;5.30;99.60;;;;;;5051748;28;20209;-91
2021/11/15 02:54:43;;;;;;;23.37;14.60;;;5.30;99.60;;;;;;5046379;28;20232;-91
2021/11/15 02:57:15;;;;;;;24.17;14.37;;;5.30;99.40;;;;;;5056540;28;20666;-91
2021/11/15 02:59:42;;;;;;;23.07;14.13;;;5.30;99.50;;;;;;5049962;28;20551;-90
2021/11/15 03:02:09;;;;;;;23.10;14.27;;;5.30;99.70;;;;;;5051060;28;20549;-90
2021/11/15 03:04:36;;;;;;;22.23;14.07;;;5.30;99.70;;;;;;5052779;28;20580;-91
2021/11/15 03:07:04;;;;;;;23.13;14.17;;;5.30;99.80;;;;;;5047220;28;20584;-90
2021/11/15 03:09:31;;;;;;;22.43;13.73;;;5.20;99.70;;;;;;5053550;28;20203;-91
2021/11/15 03:11:59;;;;;;;21.87;13.63;;;5.20;99.90;;;;;;5057136;28;20197;-90
2021/11/15 03:14:26;;;;;;;21.23;13.63;;;5.20;99.90;;;;;;5045963;28;20207;-90
2021/11/15 03:16:53;;;;;;;22.80;13.67;;;5.20;99.80;;;;;;5051715;28;20267;-91
2021/11/15 03:19:20;;;;;;;20.80;13.23;;;5.30;99.90;;;;;;5056959;28;20225;-92
2021/11/15 03:21:47;;;;;;;19.30;12.80;;;5.20;99.90;;;;;;5051941;28;20206;-91
2021/11/15 03:24:14;;;;;;;20.83;12.97;;;5.30;99.90;;;;;;5048756;28;20225;-90
2021/11/15 03:26:41;;;;;;;21.63;13.77;;;5.40;99.90;;;;;;5050940;28;20574;-90
2021/11/15 03:29:09;;;;;;;21.80;12.70;;;5.40;99.60;;;;;;5044603;28;20215;-90
2021/11/15 03:31:37;;;;;;;22.87;13.73;;;5.40;99.60;;;;;;5051579;28;20202;-90
2021/11/15 03:34:06;;;;;;;20.20;14.13;;;5.30;99.50;;;;;;5049682;28;20233;-90
2021/11/15 03:36:34;;;;;;;22.30;13.87;;;5.30;99.70;;;;;;5054404;28;20206;-90
2021/11/15 03:39:02;;;;;;;21.23;14.03;;;5.30;99.60;;;;;;5051278;28;20696;-91
2021/11/15 03:41:32;;;;;;;20.83;13.00;;;5.30;99.60;;;;;;5052779;28;20293;-91
2021/11/15 03:44:00;;;;;;;22.13;13.77;;;5.20;99.80;;;;;;5045633;28;20587;-90
2021/11/15 03:46:28;;;;;;;20.27;12.47;;;5.20;99.70;;;;;;5061130;28;20201;-90
2021/11/15 03:48:55;;;;;;;19.83;12.87;;;5.30;99.80;;;;;;5043255;28;20227;-90
2021/11/15 03:51:22;;;;;;;21.10;13.23;;;5.30;99.50;;;;;;5053774;28;20230;-91
2021/11/15 03:53:49;;;;;;;17.10;11.87;;;5.30;99.50;;;;;;5049758;28;20250;-92
2021/11/15 03:56:23;;;;;;;17.57;12.00;;;5.40;99.10;;;;;;5040434;28;20202;-90
2021/11/15 03:58:50;;;;;;;17.70;11.93;;;5.40;99.00;;;;;;5040701;28;20731;-91
2021/11/15 04:01:21;;;;;;;18.20;11.83;;;5.30;99.10;;;;;;5040653;28;20630;-89
2021/11/15 04:03:49;;;;;;;19.70;12.47;;;5.40;99.10;;;;;;5053749;28;20228;-91
2021/11/15 04:06:23;;;;;;;20.73;13.83;;;5.30;99.40;;;;;;5043951;28;20202;-90
2021/11/15 04:08:51;;;;;;;19.00;12.50;;;5.30;99.60;;;;;;5043981;28;20693;-90
2021/11/15 04:11:19;;;;;;;20.83;12.50;;;5.30;99.70;;;;;;5041154;28;20543;-91
2021/11/15 04:13:48;;;;;;;18.57;12.70;;;5.40;99.40;;;;;;5035213;28;20222;-91
2021/11/15 04:16:16;;;;;;;19.37;11.93;;;5.30;99.20;;;;;;5048529;28;20190;-91
2021/11/15 04:18:47;;;;;;;17.70;11.60;;;5.30;99.30;;;;;;5044183;28;20575;-93
2021/11/15 04:21:18;;;;;;;17.47;11.63;;;5.20;99.50;;;;;;5051217;28;20205;-90
2021/11/15 04:23:45;;;;;;;16.23;11.37;;;5.30;99.50;;;;;;5052966;28;20233;-90
2021/11/15 04:26:12;;;;;;;16.67;11.17;;;5.30;99.70;;;;;;5051594;28;20198;-91
2021/11/15 04:28:39;;;;;;;17.67;11.53;;;5.30;99.40;;;;;;5035283;28;20599;-90
2021/11/15 04:31:06;;;;;;;19.23;11.33;;;5.30;99.30;;;;;;5056495;28;20675;-90
2021/11/15 04:33:33;;;;;;;19.57;11.53;;;5.20;99.40;;;;;;5053084;28;20895;-90
2021/11/15 04:36:00;;;;;;;18.60;11.57;;;5.10;99.50;;;;;;5043363;28;20198;-90
2021/11/15 04:38:28;;;;;;;21.83;12.70;;;5.10;99.70;;;;;;5044468;28;20227;-91
2021/11/15 04:40:55;;;;;;;22.43;12.13;;;5.10;99.90;;;;;;5052411;28;20204;-92
2021/11/15 04:43:22;;;;;;;20.10;12.33;;;5.00;99.90;;;;;;5055769;28;20225;-91
2021/11/15 04:45:50;;;;;;;19.93;11.67;;;5.00;99.90;;;;;;5047296;28;20222;-91
2021/11/15 04:48:17;;;;;;;19.67;11.93;;;5.00;99.90;;;;;;5053599;28;20700;-91
2021/11/15 04:50:44;;;;;;;18.27;11.20;;;5.00;99.90;;;;;;5050042;28;20230;-92
2021/11/15 04:53:11;;;;;;;17.63;11.27;;;5.10;99.90;;;;;;5048230;28;20226;-91
2021/11/15 04:55:39;;;;;;;19.87;12.27;;;5.10;99.90;;;;;;5054340;28;20202;-90
2021/11/15 04:58:07;;;;;;;20.20;11.77;;;5.10;99.90;;;;;;5051512;28;20214;-91
2021/11/15 05:00:37;;;;;;;17.50;11.47;;;5.10;99.90;;;;;;5049594;28;20952;-90
2021/11/15 05:03:05;;;;;;;19.63;12.03;;;5.10;99.90;;;;;;5050672;28;20237;-90
2021/11/15 05:05:32;;;;;;;19.17;12.30;;;5.10;99.90;;;;;;5044549;28;20202;-90
2021/11/15 05:08:00;;;;;;;17.20;11.57;;;5.10;99.80;;;;;;5046883;28;20225;-89
2021/11/15 05:10:29;;;;;;;17.17;11.17;;;5.10;99.90;;;;;;5044518;28;20583;-89
2021/11/15 05:13:01;;;;;;;19.60;11.27;;;5.00;99.90;;;;;;5048610;28;20226;-90
2021/11/15 05:15:28;;;;;;;19.30;11.67;;;5.00;99.90;;;;;;5038882;28;20195;-90
2021/11/15 05:17:55;;;;;;;20.47;11.60;;;5.10;99.90;;;;;;5047146;28;20228;-89
2021/11/15 05:20:22;;;;;;;19.87;12.37;;;5.10;99.90;;;;;;5045589;28;20289;-90
2021/11/15 05:22:50;;;;;;;20.63;11.73;;;5.10;99.90;;;;;;5050223;28;20240;-89
2021/11/15 05:25:18;;;;;;;16.97;10.83;;;5.10;99.90;;;;;;5034117;28;20194;-90
2021/11/15 05:27:46;;;;;;;16.90;11.20;;;5.10;99.90;;;;;;5047534;28;20266;-91
2021/11/15 05:30:16;;;;;;;18.30;11.03;;;5.10;99.80;;;;;;5029694;28;20202;-90
2021/11/15 05:32:43;;;;;;;18.10;10.90;;;5.10;99.90;;;;;;5044794;28;20227;-90
2021/11/15 05:35:10;;;;;;;18.27;11.43;;;5.10;99.90;;;;;;5046933;28;20735;-90
2021/11/15 05:37:38;;;;;;;18.33;11.33;;;5.10;99.90;;;;;;5045303;28;20225;-90
2021/11/15 05:40:06;;;;;;;17.07;11.23;;;5.00;99.90;;;;;;5049935;28;20206;-90
2021/11/15 05:42:34;;;;;;;17.70;11.27;;;5.10;99.90;;;;;;5061449;28;20232;-89
2021/11/15 05:45:01;;;;;;;18.33;11.27;;;5.10;99.90;;;;;;5049508;28;20218;-89
2021/11/15 05:47:29;;;;;;;15.40;9.70;;;5.00;99.90;;;;;;5050227;28;20221;-87
2021/11/15 05:49:56;;;;;;;17.07;11.03;;;5.10;99.90;;;;;;5053455;28;20234;-89
2021/11/15 05:52:23;;;;;;;17.17;10.80;;;5.10;99.90;;;;;;5047851;28;20587;-88
2021/11/15 05:54:51;;;;;;;16.17;10.40;;;5.10;99.90;;;;;;5051534;28;20198;-89
2021/11/15 05:57:19;;;;;;;17.40;10.43;;;5.10;99.80;;;;;;5038068;28;20236;-88
2021/11/15 05:59:46;;;;;;;14.77;9.90;;;5.10;99.60;;;;;;5052271;28;20202;-89
2021/11/15 06:02:13;;;;;;;17.63;10.50;;;5.10;99.60;;;;;;5066853;28;20657;-88
2021/11/15 06:04:42;;;;;;;15.50;10.33;;;5.10;99.60;;;;;;5047099;28;20305;-87
2021/11/15 06:07:09;;;;;;;18.37;10.70;;;5.10;99.50;;;;;;5054897;28;20194;-87
2021/11/15 06:09:36;;;;;;;15.97;10.93;;;5.10;99.50;;;;;;5051344;28;20277;-86
2021/11/15 06:12:03;;;;;;;17.23;11.50;;;5.10;99.60;;;;;;5052915;28;20197;-88
2021/11/15 06:14:30;;;;;;;16.50;10.83;;;5.10;99.50;;;;;;5041982;28;20683;-89
2021/11/15 06:16:57;;;;;;;16.73;11.00;;;5.10;99.50;;;;;;5046733;28;20220;-87
2021/11/15 06:19:24;;;;;;;20.47;11.10;;;5.00;99.80;;;;;;5047707;28;20664;-89
2021/11/15 06:21:55;;;;;;;19.20;11.47;;;5.00;99.90;;;;;;5047617;28;20280;-87
2021/11/15 06:24:23;;;;;;;16.00;10.50;;;5.00;99.70;;;;;;5052069;28;20240;-87
2021/11/15 06:26:49;;;;;;;15.97;10.33;;;5.00;99.90;;;;;;5048086;28;20560;-86
2021/11/15 06:29:16;;;;;;;15.57;10.57;;;5.00;99.90;;;;;;5045943;28;20236;-87
2021/11/15 06:31:43;;;;;;;17.40;10.07;;;5.00;99.90;;;;;;5055654;28;20216;-88
2021/11/15 06:34:10;;;;;;;14.20;8.63;;;5.00;99.90;;;;;;5031071;28;20229;-87
2021/11/15 06:36:37;;;;;;;14.70;9.33;;;5.10;99.50;;;;;;5057440;28;20232;-87
2021/11/15 06:39:06;;;;;;;14.73;8.83;;;4.90;99.70;;;;;;5053491;28;20226;-87
2021/11/15 06:41:35;;;;;;;13.77;8.80;;;4.90;99.80;;;;;;5053409;28;20564;-87
2021/11/15 06:44:05;;;;;;;14.23;8.23;;;4.90;99.90;;;;;;5049234;28;20801;-88
2021/11/15 06:46:32;;;;;;;13.03;7.70;;;5.00;99.40;;;;;;5047928;28;20715;-88
2021/11/15 06:48:59;;;;;;;12.10;8.17;;;5.00;99.20;;;;;;5054505;28;20601;-87
2021/11/15 06:51:28;;;;;;;11.07;7.77;;;5.00;99.10;;;;;;5047563;28;20229;-88
2021/11/15 06:53:55;;;;;;;12.87;8.27;;;4.90;99.30;;;;;;5049573;28;20238;-88
2021/11/15 06:56:23;;;;;;;11.70;8.03;;;4.90;99.30;;;;;;5060994;28;20205;-88
2021/11/15 06:58:50;;;;;;;12.27;8.23;;;5.00;99.20;;;;;;5045892;28;20577;-87
2021/11/15 07:01:17;;;;;;;14.00;8.70;;;5.00;99.30;;;;;;5051593;28;20202;-87
2021/11/15 07:03:44;;;;;;;11.70;8.50;;;4.90;99.10;;;;;;5047376;28;20318;-88
2021/11/15 07:06:12;;;;;;;12.03;8.90;;;5.00;99.20;;;;;;5058830;28;20745;-88
2021/11/15 07:08:39;;;;;;;13.77;8.47;;;4.90;99.20;;;;;;5058509;28;20601;-89
2021/11/15 07:11:05;;;;;;;11.50;7.77;;;4.90;99.40;;;;;;5053336;28;20201;-88
2021/11/15 07:13:34;;;;;;;12.53;7.90;;;5.00;99.10;;;;;;5059212;28;20259;-88
2021/11/15 07:16:01;;;;;;;11.30;7.80;;;5.00;98.80;;;;;;5043934;28;20217;-87
2021/11/15 07:18:28;;;;;;;12.67;8.33;;;5.00;98.90;;;;;;5047476;28;20257;-88
2021/11/15 07:20:55;;;;;;;18.20;9.20;;;5.10;98.80;;;;;;5052578;28;20194;-88
2021/11/15 07:23:22;;;;;;;12.73;8.77;;;5.00;98.80;;;;;;5050864;28;20226;-88
2021/11/15 07:25:49;;;;;;;12.17;8.37;;;5.10;99.00;;;;;;5059678;28;20201;-88
2021/11/15 07:28:17;;;;;;;13.60;8.63;;;5.00;99.00;;;;;;5052967;28;20212;-88
2021/11/15 07:30:46;;;;;;;13.07;8.67;;;5.10;99.30;;;;;;5048328;28;20201;-88
2021/11/15 07:33:15;;;;;;;14.30;8.47;;;5.20;98.80;;;;;;5055905;28;20226;-88
2021/11/15 07:35:49;;;;;;;13.17;8.20;;;5.20;98.60;;;;;;5051017;28;20200;-89
2021/11/15 07:38:16;;;;;;;12.83;8.63;;;5.20;98.40;;;;;;5054525;28;20236;-87
2021/11/15 07:40:43;;;;;;;11.87;8.07;;;5.30;98.50;;;;;;5046593;28;20247;-88
2021/11/15 07:43:10;;;;;;;11.47;8.40;;;5.30;98.40;;;;;;5046508;28;20228;-88
2021/11/15 07:45:37;;;;;;;13.30;9.10;;;5.30;98.20;;;;;;5048486;28;20221;-87
2021/11/15 07:48:07;;;;;;;14.27;9.03;;;5.30;98.30;;;;;;5043881;28;20244;-88
2021/11/15 07:50:35;;;;;;;13.67;9.70;;;5.40;98.10;;;;;;5046192;28;20226;-88
2021/11/15 07:53:02;;;;;;;14.20;9.00;;;5.40;97.80;;;;;;5046003;28;20226;-86
2021/11/15 07:55:29;;;;;;;13.53;9.30;;;5.30;98.10;;;;;;5049976;28;20202;-89
2021/11/15 07:58:01;;;;;;;14.20;9.37;;;5.30;97.90;;;;;;5053071;28;20230;-85
2021/11/15 08:00:28;;;;;;;14.07;9.07;;;5.40;97.80;;;;;;5049675;28;20209;-87
2021/11/15 08:02:55;;;;;;;12.67;9.37;;;5.40;97.70;;;;;;5040929;28;20220;-87
2021/11/15 08:05:26;;;;;;;14.93;9.57;;;5.40;97.70;;;;;;5057774;28;20228;-86
2021/11/15 08:07:55;;;;;;;11.03;8.70;;;5.40;97.80;;;;;;5045739;28;20230;-87
2021/11/15 08:10:22;;;;;;;12.67;8.93;;;5.40;98.10;;;;;;5048718;28;20232;-88
2021/11/15 08:12:53;;;;;;;12.77;8.73;;;5.40;98.20;;;;;;5050986;28;20230;-87
2021/11/15 08:15:22;;;;;;;12.57;8.57;;;5.40;97.80;;;;;;5044883;28;20202;-89
2021/11/15 08:17:52;;;;;;;12.80;8.27;;;5.50;97.80;;;;;;5052696;28;20240;-90
2021/11/15 08:20:21;;;;;;;12.30;8.23;;;5.50;97.70;;;;;;5048978;28;20281;-90
2021/11/15 08:22:54;;;;;;;14.83;9.07;;;5.50;97.60;;;;;;5056309;28;20243;-90
2021/11/15 08:25:58;;;;;;;14.03;8.80;;;5.50;97.70;;;;;;5042656;28;20758;-89
2021/11/15 08:28:26;;;;;;;13.57;9.10;;;5.50;97.30;;;;;;5047916;28;20226;-89
2021/11/15 08:30:53;;;;;;;12.77;9.50;;;5.40;97.60;;;;;;5048541;28;20206;-89
2021/11/15 08:33:20;;;;;;;13.77;9.50;;;5.40;98.00;;;;;;5044761;28;20230;-90
2021/11/15 08:35:48;;;;;;;12.87;8.77;;;5.40;97.90;;;;;;5051383;28;20198;-90
2021/11/15 08:38:48;;;;;;;14.50;9.50;;;5.40;97.90;;;;;;5060274;28;20272;-90
2021/11/15 08:41:19;;;;;;;14.33;9.43;;;5.40;97.80;;;;;;5045272;28;20278;-90
2021/11/15 08:43:46;;;;;;;15.77;10.10;;;5.50;97.80;;;;;;5035236;28;20308;-89
2021/11/15 08:46:16;;;;;;;13.20;9.73;;;5.50;97.90;;;;;;5044114;28;20201;-90
2021/11/15 08:48:48;;;;;;;15.30;9.80;;;5.50;98.10;;;;;;5037456;28;20236;-89
2021/11/15 08:51:17;;;;;;;14.07;9.53;;;5.60;98.00;;;;;;5043963;28;20256;-89
2021/11/15 08:53:47;;;;;;;14.10;9.73;;;5.60;97.80;;;;;;5041829;28;20222;-90
2021/11/15 08:56:14;;;;;;;14.53;10.17;;;5.60;97.80;;;;;;5052215;28;20761;-90
2021/11/15 08:58:41;;;;;;;16.03;9.40;;;5.40;98.10;;;;;;5050732;28;20222;-89
2021/11/15 09:01:09;;;;;;;14.20;9.53;;;5.50;97.80;;;;;;5044324;28;20555;-89
2021/11/15 09:03:38;;;;;;;13.10;8.83;;;5.50;98.00;;;;;;5051597;28;20308;-90
2021/11/15 09:06:07;;;;;;;15.60;8.90;;;5.60;98.10;;;;;;5047686;28;20226;-90
2021/11/15 09:08:34;;;;;;;11.97;8.40;;;5.60;97.80;;;;;;5040979;28;20234;-89
2021/11/15 09:11:05;;;;;;;11.87;8.80;;;5.60;97.80;;;;;;5041605;28;20206;-89
2021/11/15 09:13:33;;;;;;;12.63;8.63;;;5.70;97.80;;;;;;5042273;28;20222;-90
2021/11/15 09:15:59;;;;;;;12.43;8.67;;;5.70;97.90;;;;;;5041699;28;20195;-89
2021/11/15 09:18:27;;;;;;;12.43;8.17;;;5.80;97.70;;;;;;5041158;28;20222;-89
2021/11/15 09:20:55;;;;;;;12.90;8.00;;;5.80;97.20;;;;;;5043625;28;20228;-88
2021/11/15 09:23:22;;;;;;;13.77;8.47;;;5.80;97.10;;;;;;5050657;28;20305;-89
2021/11/15 09:25:49;;;;;;;11.80;8.40;;;5.80;96.90;;;;;;5059178;28;20313;-89
2021/11/15 09:28:17;;;;;;;10.37;8.07;;;5.80;97.40;;;;;;5045705;28;20703;-89
2021/11/15 09:30:47;;;;;;;13.63;8.53;;;5.80;97.90;;;;;;5048776;28;20558;-90
2021/11/15 09:33:13;;;;;;;12.63;8.57;;;5.80;97.30;;;;;;5043521;28;20245;-89
2021/11/15 09:35:48;;;;;;;11.13;8.17;;;5.90;97.10;;;;;;5047672;28;20210;-90
2021/11/15 09:38:16;;;;;;;13.40;8.63;;;5.90;97.00;;;;;;5048302;28;20217;-90
2021/11/15 09:40:43;;;;;;;14.53;9.37;;;5.90;96.70;;;;;;5050430;28;20212;-89
2021/11/15 09:43:10;;;;;;;11.70;8.40;;;5.90;97.00;;;;;;5034523;28;20222;-89
2021/11/15 09:45:39;;;;;;;15.03;9.07;;;5.90;97.10;;;;;;5044509;28;20317;-89
2021/11/15 09:48:09;;;;;;;13.50;8.80;;;5.90;97.00;;;;;;5051360;28;20719;-89
2021/11/15 09:50:36;;;;;;;12.87;9.50;;;6.00;96.90;;;;;;5038295;28;20309;-89
2021/11/15 09:53:12;;;;;;;14.13;9.63;;;6.00;96.90;;;;;;5056438;28;20220;-89
2021/11/15 09:55:39;;;;;;;10.80;8.10;;;6.00;96.70;;;;;;5051546;28;20570;-90
2021/11/15 09:58:07;;;;;;;12.20;8.67;;;6.00;96.10;;;;;;5050351;28;20289;-88
2021/11/15 10:00:39;;;;;;;11.17;8.60;;;6.00;96.00;;;;;;5051342;28;20229;-91
2021/11/15 10:03:10;;;;;;;13.27;9.00;;;6.00;96.30;;;;;;5051884;28;20271;-90
2021/11/15 10:05:37;;;;;;;11.33;8.10;;;6.00;95.50;;;;;;5058830;28;20236;-89
2021/11/15 10:08:10;;;;;;;11.77;8.17;;;5.90;96.50;;;;;;5056341;28;20653;-91
2021/11/15 10:13:24;;;;;;;13.77;8.60;;;5.90;96.90;;;;;;5049925;28;20696;-89
2021/11/15 10:16:01;;;;;;;14.33;9.27;;;5.70;97.40;;;;;;5051229;28;20206;-91
2021/11/15 10:18:45;;;;;;;11.57;8.47;;;5.70;97.60;;;;;;5058436;28;20236;-89
2021/11/15 10:21:18;;;;;;;11.93;8.57;;;5.70;97.80;;;;;;5056156;28;20208;-89
2021/11/15 10:23:48;;;;;;;12.30;8.80;;;5.70;97.80;;;;;;5053620;28;20225;-90
2021/11/15 10:26:27;;;;;;;12.33;8.47;;;5.70;97.80;;;;;;5047788;28;20221;-90
2021/11/15 10:29:10;;;;;;;11.20;8.00;;;5.90;97.10;;;;;;5059781;28;20275;-91
2021/11/15 10:31:41;;;;;;;12.53;9.00;;;6.10;96.20;;;;;;5052253;28;20216;-89
2021/11/15 10:34:13;;;;;;;13.27;8.77;;;6.00;96.40;;;;;;5047731;28;20304;-89
2021/11/15 10:37:02;;;;;;;12.03;8.60;;;6.00;96.90;;;;;;5050882;28;20653;-89
2021/11/15 10:39:33;;;;;;;12.30;7.93;;;6.10;96.30;;;;;;5049542;28;20590;-90
2021/11/15 10:42:05;;;;;;;10.20;7.80;;;6.10;96.10;;;;;;5050004;28;20285;-90
2021/11/15 10:44:33;;;;;;;11.50;8.10;;;6.20;95.90;;;;;;5052440;28;20233;-95
2021/11/15 10:47:00;;;;;;;11.67;8.33;;;6.00;96.20;;;;;;5050245;28;20194;-89
2021/11/15 10:49:30;;;;;;;10.77;7.90;;;6.10;96.30;;;;;;5041293;28;20305;-89
2021/11/15 10:52:00;;;;;;;12.53;8.90;;;6.10;96.10;;;;;;5042891;28;20193;-90
2021/11/15 10:54:55;;;;;;;13.43;9.13;;;6.20;95.90;;;;;;5043574;28;20228;-91
2021/11/15 10:57:32;;;;;;;12.03;8.67;;;6.20;95.70;;;;;;5053983;28;20202;-89
2021/11/15 11:00:27;;;;;;;13.20;9.10;;;6.30;95.40;;;;;;5045755;28;20292;-90
2021/11/15 11:03:10;;;;;;;12.80;9.10;;;6.20;95.30;;;;;;5044869;28;20253;-89
2021/11/15 11:05:40;;;;;;;13.43;9.37;;;6.10;95.40;;;;;;5043715;28;20222;-91
2021/11/15 11:08:24;;;;;;;14.53;9.50;;;6.10;95.60;;;;;;5051161;28;20220;-90
2021/11/15 11:10:59;;;;;;;13.90;9.07;;;6.10;95.60;;;;;;5052219;28;20600;-90
2021/11/15 11:13:32;;;;;;;15.37;9.37;;;6.10;95.80;;;;;;5049023;28;20601;-90
2021/11/15 11:15:59;;;;;;;14.23;9.50;;;6.20;95.70;;;;;;5040437;28;20194;-91
2021/11/15 11:18:36;;;;;;;13.17;9.10;;;6.10;95.80;;;;;;5043995;28;20680;-92
2021/11/15 11:24:17;;;;;;;11.90;8.37;;;6.20;95.50;;;;;;5049916;28;20218;-90
2021/11/15 11:26:50;;;;;;;13.10;8.77;;;6.20;95.30;;;;;;5054163;28;20229;-90
2021/11/15 11:29:21;;;;;;;12.70;8.90;;;6.20;95.60;;;;;;5049934;28;20218;-87
2021/11/15 11:31:58;;;;;;;13.40;9.40;;;6.20;95.40;;;;;;5052372;28;20197;-91
2021/11/15 11:34:25;;;;;;;12.50;8.60;;;6.30;95.40;;;;;;5043681;28;20671;-90
2021/11/15 11:36:54;;;;;;;12.97;8.73;;;6.30;95.40;;;;;;5046997;28;20303;-90
2021/11/15 11:39:23;;;;;;;13.23;9.13;;;6.30;95.40;;;;;;5039701;28;20222;-91
2021/11/15 11:41:54;;;;;;;12.47;9.13;;;6.40;95.40;;;;;;5037780;28;20208;-91
2021/11/15 11:44:25;;;;;;;13.27;10.00;;;6.40;95.40;;;;;;5044970;28;20258;-87
2021/11/15 11:46:52;;;;;;;13.17;9.23;;;6.10;95.30;;;;;;5044590;28;20210;-90
2021/11/15 11:49:24;;;;;;;14.27;9.87;;;6.00;95.60;;;;;;5044636;28;20220;-89
2021/11/15 11:51:56;;;;;;;14.00;9.90;;;6.10;96.00;;;;;;5046674;28;20199;-89
2021/11/15 11:54:27;;;;;;;15.77;10.23;;;6.10;95.90;;;;;;5044496;28;20639;-89
2021/11/15 11:57:04;;;;;;;14.23;9.63;;;6.20;95.70;;;;;;5047375;28;20198;-88
2021/11/15 11:59:32;;;;;;;14.77;9.73;;;6.20;95.30;;;;;;5042262;28;20213;-89
2021/11/15 12:02:02;;;;;;;17.53;10.30;;;6.20;95.30;;;;;;5062442;28;20201;-88
2021/11/15 12:04:31;;;;;;;14.20;9.77;;;6.10;95.60;;;;;;5048613;28;20249;-89
2021/11/15 12:06:59;;;;;;;13.03;9.20;;;5.90;96.60;;;;;;5037579;28;20234;-89
2021/11/15 12:09:47;;;;;;;14.27;9.87;;;6.00;96.30;;;;;;5044621;28;20614;-89
2021/11/15 12:12:14;;;;;;;16.53;10.27;;;6.00;96.30;;;;;;5050816;28;20206;-86
2021/11/15 12:14:43;;;;;;;14.53;9.93;;;6.00;96.40;;;;;;5048198;28;20198;-89
2021/11/15 12:17:13;;;;;;;14.10;9.60;;;6.10;96.30;;;;;;5046653;28;20206;-89
2021/11/15 12:20:15;;;;;;;12.73;9.03;;;6.10;96.30;;;;;;5056204;28;20203;-89
2021/11/15 12:22:55;;;;;;;13.33;9.53;;;6.20;96.10;;;;;;5040620;28;20242;-89
2021/11/15 12:25:24;;;;;;;12.83;8.67;;;6.10;96.00;;;;;;5053092;28;20213;-88
2021/11/15 12:27:53;;;;;;;16.05;9.27;;;6.10;95.80;;;;;;5057217;28;20222;-91
2021/11/15 12:30:23;;;;;;;12.23;9.13;;;6.10;95.80;;;;;;5054595;28;20574;-90
2021/11/15 12:33:22;;;;;;;13.67;9.53;;;6.10;95.90;;;;;;5049007;28;20222;-88
2021/11/15 12:36:02;;;;;;;14.07;9.47;;;6.20;95.90;;;;;;5043601;28;20210;-89
2021/11/15 12:38:39;;;;;;;13.73;9.50;;;6.10;95.60;;;;;;5047848;28;20229;-89
2021/11/15 12:41:37;;;;;;;13.23;8.90;;;6.20;95.70;;;;;;5043295;28;20191;-89
2021/11/15 12:44:27;;;;;;;12.27;9.10;;;6.20;95.70;;;;;;5050084;28;20245;-89
2021/11/15 12:47:00;;;;;;;15.23;9.57;;;6.30;95.40;;;;;;5039480;28;20233;-89
2021/11/15 12:49:34;;;;;;;14.07;9.73;;;6.10;95.50;;;;;;5037986;28;20255;-89
2021/11/15 12:52:21;;;;;;;14.60;9.83;;;6.20;95.80;;;;;;5050512;28;20226;-88
2021/11/15 12:54:53;;;;;;;12.57;8.83;;;6.00;96.40;;;;;;5051355;28;20227;-89
2021/11/15 12:57:45;;;;;;;14.70;9.70;;;6.10;96.10;;;;;;5047253;28;20203;-89
2021/11/15 13:00:24;;;;;;;12.23;9.15;;;6.30;95.90;;;;;;5043528;28;20586;-88